Time;durP1;ratioP1;P1;durP2;ratioP2;P2;SDS_P1;SDS_P2;PMS_P1;PMS_P2;Temp;Humidity;BMP_temperature;BMP_pressure;BME280_temperature;BME280_humidity;BME280_pressure;Samples;Min_cycle;Max_cycle;Signal;HPM_P1;HPM_P2
2023/03/08 00:01:22;;;;;;;8.68;4.65;;;5.90;99.90;;;;;;5038563;28;20221;-71
2023/03/08 00:03:53;;;;;;;6.72;4.55;;;5.90;99.90;;;;;;5072452;28;20278;-71
2023/03/08 00:06:22;;;;;;;6.97;5.13;;;5.90;99.90;;;;;;5074475;28;20729;-71
2023/03/08 00:08:58;;;;;;;6.95;4.88;;;5.90;99.90;;;;;;5041236;28;20223;-71
2023/03/08 00:11:24;;;;;;;6.47;4.70;;;5.90;99.90;;;;;;5072083;28;20196;-71
2023/03/08 00:13:51;;;;;;;7.03;4.68;;;5.90;99.90;;;;;;5054932;28;20195;-71
2023/03/08 00:16:17;;;;;;;7.40;4.97;;;5.90;99.90;;;;;;5038241;28;20196;-71
2023/03/08 00:18:43;;;;;;;5.53;4.38;;;5.90;99.90;;;;;;5054164;28;20250;-71
2023/03/08 00:21:15;;;;;;;6.37;4.23;;;5.90;99.90;;;;;;5072566;28;20200;-71
2023/03/08 00:23:41;;;;;;;6.43;4.93;;;5.90;99.90;;;;;;5072857;28;21117;-71
2023/03/08 00:26:13;;;;;;;9.15;5.13;;;5.90;99.90;;;;;;5072291;28;20176;-71
2023/03/08 00:28:41;;;;;;;4.47;3.90;;;5.90;99.90;;;;;;5072524;28;20242;-71
2023/03/08 00:31:10;;;;;;;7.83;4.60;;;5.90;99.90;;;;;;5053855;28;20228;-71
2023/03/08 00:33:39;;;;;;;5.88;4.72;;;5.90;99.90;;;;;;5054413;28;20454;-71
2023/03/08 00:36:17;;;;;;;9.82;4.43;;;5.80;99.90;;;;;;5054166;28;20188;-71
2023/03/08 00:38:51;;;;;;;6.80;4.78;;;5.80;99.90;;;;;;5054570;28;20200;-71
2023/03/08 00:41:17;;;;;;;7.65;4.88;;;5.80;99.90;;;;;;5037959;28;20214;-71
2023/03/08 00:43:48;;;;;;;9.48;4.75;;;5.80;99.90;;;;;;5054393;28;20577;-71
2023/03/08 00:46:17;;;;;;;6.22;4.28;;;5.80;99.90;;;;;;5070986;28;20599;-72
2023/03/08 00:48:44;;;;;;;6.63;4.40;;;5.80;99.90;;;;;;5054468;28;20200;-71
2023/03/08 00:51:17;;;;;;;6.50;4.22;;;5.80;99.90;;;;;;5054357;28;20178;-71
2023/03/08 00:53:45;;;;;;;6.20;4.63;;;5.80;99.90;;;;;;5054906;28;20243;-71
2023/03/08 00:56:16;;;;;;;6.05;4.53;;;5.80;99.90;;;;;;5053949;28;20200;-71
2023/03/08 00:58:45;;;;;;;6.68;4.30;;;5.80;99.90;;;;;;5035304;28;20207;-71
2023/03/08 01:01:17;;;;;;;5.20;4.07;;;5.80;99.90;;;;;;5053735;28;20233;-71
2023/03/08 01:03:45;;;;;;;5.57;4.20;;;5.80;99.90;;;;;;5053664;28;20177;-71
2023/03/08 01:06:15;;;;;;;8.10;4.32;;;5.80;99.90;;;;;;5054114;28;20665;-71
2023/03/08 01:08:43;;;;;;;7.45;4.15;;;5.80;99.90;;;;;;5053752;28;20284;-71
2023/03/08 01:11:21;;;;;;;6.22;4.60;;;5.80;99.90;;;;;;5071687;28;20185;-71
2023/03/08 01:13:50;;;;;;;5.80;4.20;;;5.80;99.90;;;;;;5017721;28;20194;-71
2023/03/08 01:16:21;;;;;;;5.93;4.25;;;5.80;99.90;;;;;;5052153;28;20573;-71
2023/03/08 01:18:51;;;;;;;4.72;4.03;;;5.80;99.90;;;;;;5049600;28;20288;-71
2023/03/08 01:21:19;;;;;;;6.43;4.70;;;5.80;99.90;;;;;;5053797;28;20230;-71
2023/03/08 01:23:46;;;;;;;6.05;4.50;;;5.80;99.90;;;;;;5053137;28;20177;-72
2023/03/08 01:26:16;;;;;;;6.20;4.15;;;5.80;99.90;;;;;;5053776;28;20202;-71
2023/03/08 01:28:45;;;;;;;5.63;4.30;;;5.80;99.90;;;;;;5020611;28;20243;-71
2023/03/08 01:31:26;;;;;;;5.55;4.30;;;5.80;99.90;;;;;;5054237;28;20297;-71
2023/03/08 01:33:56;;;;;;;6.15;4.35;;;5.80;99.90;;;;;;5036971;28;20745;-71
2023/03/08 01:36:28;;;;;;;5.80;4.05;;;5.80;99.90;;;;;;5053796;28;20237;-71
2023/03/08 01:38:54;;;;;;;7.43;4.95;;;5.80;99.90;;;;;;5053977;28;20654;-71
2023/03/08 01:41:33;;;;;;;5.38;3.70;;;5.80;99.90;;;;;;5037404;28;20164;-71
2023/03/08 01:44:03;;;;;;;6.32;4.53;;;5.80;99.90;;;;;;5037309;28;20587;-70
2023/03/08 01:46:30;;;;;;;7.60;4.25;;;5.80;99.90;;;;;;5035770;28;20197;-71
2023/03/08 01:49:16;;;;;;;5.28;4.10;;;5.80;99.90;;;;;;5057266;28;20243;-71
2023/03/08 01:51:58;;;;;;;6.10;4.53;;;5.80;99.90;;;;;;5025523;28;20185;-71
2023/03/08 01:54:45;;;;;;;4.60;3.50;;;5.80;99.90;;;;;;5038879;28;20208;-71
2023/03/08 01:57:16;;;;;;;5.47;3.67;;;5.80;99.90;;;;;;5053995;28;20223;-72
2023/03/08 01:59:47;;;;;;;6.50;4.25;;;5.70;99.90;;;;;;5075304;28;20201;-71
2023/03/08 02:02:21;;;;;;;5.75;3.85;;;5.70;99.90;;;;;;5057369;28;20169;-72
2023/03/08 02:04:48;;;;;;;5.38;3.88;;;5.70;99.90;;;;;;5055172;28;20206;-71
2023/03/08 02:07:16;;;;;;;4.20;3.65;;;5.70;99.90;;;;;;5057187;28;20721;-71
2023/03/08 02:09:49;;;;;;;6.35;3.72;;;5.70;99.90;;;;;;5040545;28;20228;-71
2023/03/08 02:12:18;;;;;;;7.45;3.80;;;5.70;99.90;;;;;;5057185;28;20532;-71
2023/03/08 02:14:47;;;;;;;4.68;4.03;;;5.70;99.90;;;;;;5057295;28;20228;-71
2023/03/08 02:17:13;;;;;;;7.68;3.97;;;5.70;99.90;;;;;;5056495;28;20177;-71
2023/03/08 02:19:51;;;;;;;4.90;3.90;;;5.70;99.90;;;;;;5040190;28;20331;-70
2023/03/08 02:22:23;;;;;;;5.38;3.75;;;5.70;99.90;;;;;;5056882;28;20267;-71
2023/03/08 02:24:58;;;;;;;4.13;3.55;;;5.70;99.90;;;;;;5057134;28;20182;-70
2023/03/08 02:27:27;;;;;;;7.90;4.28;;;5.70;99.90;;;;;;5074657;28;20180;-70
2023/03/08 02:29:57;;;;;;;5.38;4.15;;;5.70;99.90;;;;;;5040403;28;20191;-71
2023/03/08 02:32:23;;;;;;;6.97;4.80;;;5.70;99.90;;;;;;5055833;28;20275;-71
2023/03/08 02:34:49;;;;;;;5.10;3.87;;;5.70;99.90;;;;;;5056570;28;20276;-71
2023/03/08 02:37:20;;;;;;;5.05;3.72;;;5.70;99.90;;;;;;5056520;28;20418;-71
2023/03/08 02:39:47;;;;;;;5.10;3.80;;;5.70;99.90;;;;;;5056713;28;20192;-71
2023/03/08 02:42:13;;;;;;;5.13;3.92;;;5.70;99.90;;;;;;5074366;28;20170;-70
2023/03/08 02:44:44;;;;;;;6.53;4.15;;;5.70;99.90;;;;;;5074608;28;20225;-70
2023/03/08 02:47:10;;;;;;;5.18;3.60;;;5.70;99.90;;;;;;5073227;28;20216;-70
2023/03/08 02:49:38;;;;;;;5.10;3.60;;;5.70;99.90;;;;;;5057085;28;20290;-70
2023/03/08 02:52:11;;;;;;;4.90;4.20;;;5.70;99.90;;;;;;5039533;28;20184;-71
2023/03/08 02:54:39;;;;;;;4.93;3.97;;;5.70;99.90;;;;;;5056314;28;20184;-70
2023/03/08 02:57:09;;;;;;;5.80;4.55;;;5.70;99.90;;;;;;5040277;28;20169;-70
2023/03/08 02:59:42;;;;;;;4.60;3.88;;;5.70;99.90;;;;;;5019898;28;20682;-71
2023/03/08 03:02:13;;;;;;;5.72;4.40;;;5.70;99.90;;;;;;5020260;28;20186;-72
2023/03/08 03:04:45;;;;;;;6.15;4.50;;;5.70;99.90;;;;;;5020148;28;20191;-70
2023/03/08 03:07:16;;;;;;;6.57;4.75;;;5.70;99.90;;;;;;5053010;28;20205;-71
2023/03/08 03:09:42;;;;;;;6.20;4.78;;;5.70;99.90;;;;;;5039107;28;20211;-71
2023/03/08 03:12:11;;;;;;;5.07;4.30;;;5.70;99.90;;;;;;5073843;28;20172;-71
2023/03/08 03:14:44;;;;;;;6.70;4.53;;;5.60;99.90;;;;;;5020440;28;20219;-71
2023/03/08 03:17:12;;;;;;;6.03;4.50;;;5.70;99.90;;;;;;5056153;28;20209;-71
2023/03/08 03:19:38;;;;;;;8.85;5.50;;;5.70;99.90;;;;;;5052984;28;20224;-71
2023/03/08 03:22:04;;;;;;;8.03;5.80;;;5.60;99.90;;;;;;5014337;28;20201;-72
2023/03/08 03:24:30;;;;;;;6.38;4.78;;;5.60;99.90;;;;;;5056018;28;20457;-70
2023/03/08 03:27:00;;;;;;;6.90;4.88;;;5.60;99.90;;;;;;5022893;28;20196;-70
2023/03/08 03:29:37;;;;;;;6.72;5.15;;;5.60;99.90;;;;;;5039473;28;20295;-71
2023/03/08 03:32:14;;;;;;;8.15;5.60;;;5.60;99.90;;;;;;5056717;28;20185;-71
2023/03/08 03:34:42;;;;;;;8.32;5.03;;;5.60;99.90;;;;;;5038889;28;20200;-71
2023/03/08 03:37:11;;;;;;;7.53;5.75;;;5.60;99.90;;;;;;5056013;28;20171;-71
2023/03/08 03:39:42;;;;;;;10.65;5.70;;;5.60;99.90;;;;;;5038649;28;20543;-71
2023/03/08 03:42:12;;;;;;;6.22;5.35;;;5.60;99.90;;;;;;5039465;28;20178;-71
2023/03/08 03:44:47;;;;;;;10.77;5.53;;;5.60;99.90;;;;;;5055033;28;20247;-71
2023/03/08 03:47:19;;;;;;;6.90;5.30;;;5.60;99.90;;;;;;5038227;28;20658;-71
2023/03/08 03:49:49;;;;;;;9.40;5.25;;;5.60;99.90;;;;;;5038247;28;20200;-71
2023/03/08 03:52:17;;;;;;;8.20;6.45;;;5.60;99.90;;;;;;5039023;28;20264;-71
2023/03/08 03:54:52;;;;;;;9.77;5.80;;;5.60;99.90;;;;;;5055177;28;20599;-70
2023/03/08 03:57:21;;;;;;;8.82;6.03;;;5.60;99.90;;;;;;5055166;28;20167;-71
2023/03/08 03:59:49;;;;;;;8.93;6.07;;;5.60;99.90;;;;;;5055181;28;20204;-71
2023/03/08 04:02:18;;;;;;;9.70;6.47;;;5.60;99.90;;;;;;5055205;28;20153;-71
2023/03/08 04:04:51;;;;;;;8.43;5.55;;;5.60;99.90;;;;;;5055157;28;20171;-71
2023/03/08 04:07:20;;;;;;;8.15;5.82;;;5.60;99.90;;;;;;5055330;28;20712;-71
2023/03/08 04:09:55;;;;;;;10.20;6.78;;;5.60;99.90;;;;;;5055144;28;20612;-70
2023/03/08 04:12:21;;;;;;;9.55;6.38;;;5.60;99.90;;;;;;5055081;28;20186;-70
2023/03/08 04:14:51;;;;;;;10.23;6.93;;;5.60;99.90;;;;;;5054809;28;20276;-71
2023/03/08 04:17:21;;;;;;;8.93;6.35;;;5.60;99.90;;;;;;5034767;28;20680;-71
2023/03/08 04:19:54;;;;;;;10.27;6.45;;;5.60;99.90;;;;;;5034329;28;20307;-71
2023/03/08 04:22:21;;;;;;;10.85;6.28;;;5.60;99.90;;;;;;5024472;28;20253;-71
2023/03/08 04:25:01;;;;;;;9.20;6.50;;;5.60;99.90;;;;;;5054760;28;20238;-71
2023/03/08 04:27:53;;;;;;;11.15;7.10;;;5.60;99.90;;;;;;5042074;28;20286;-71
2023/03/08 04:30:20;;;;;;;12.40;6.55;;;5.60;99.90;;;;;;5021931;28;20238;-70
2023/03/08 04:32:46;;;;;;;16.13;7.37;;;5.60;99.90;;;;;;5054355;28;20660;-70
2023/03/08 04:35:15;;;;;;;8.88;6.90;;;5.60;99.90;;;;;;5054655;28;20495;-70
2023/03/08 04:37:45;;;;;;;11.18;8.05;;;5.60;99.90;;;;;;5054655;28;20645;-70
2023/03/08 04:40:16;;;;;;;9.70;7.10;;;5.60;99.90;;;;;;5038209;28;20599;-71
2023/03/08 04:42:53;;;;;;;9.00;6.40;;;5.60;99.90;;;;;;5040024;28;20595;-71
2023/03/08 04:45:24;;;;;;;15.50;7.93;;;5.60;99.90;;;;;;5038691;28;20538;-71
2023/03/08 04:47:57;;;;;;;11.82;8.43;;;5.60;99.90;;;;;;5037559;28;20207;-71
2023/03/08 04:50:25;;;;;;;11.27;7.70;;;5.60;99.90;;;;;;5054326;28;20613;-71
2023/03/08 04:52:55;;;;;;;10.02;7.47;;;5.60;99.90;;;;;;5054232;28;20547;-71
2023/03/08 04:55:22;;;;;;;11.98;7.78;;;5.60;99.90;;;;;;5053964;28;20269;-71
2023/03/08 04:57:53;;;;;;;12.35;8.27;;;5.60;99.90;;;;;;5038082;28;20195;-71
2023/03/08 05:00:24;;;;;;;9.52;7.25;;;5.60;99.90;;;;;;5037510;28;20176;-70
2023/03/08 05:02:50;;;;;;;12.40;8.18;;;5.60;99.90;;;;;;5036681;28;20723;-70
2023/03/08 05:05:18;;;;;;;10.30;7.80;;;5.60;99.90;;;;;;5072397;28;20156;-72
2023/03/08 05:07:46;;;;;;;12.60;8.68;;;5.50;99.90;;;;;;5054004;28;20190;-71
2023/03/08 05:10:16;;;;;;;13.27;8.52;;;5.60;99.90;;;;;;5038118;28;20261;-71
2023/03/08 05:12:44;;;;;;;11.40;7.93;;;5.60;99.90;;;;;;5053734;28;20160;-71
2023/03/08 05:15:15;;;;;;;13.70;9.45;;;5.50;99.90;;;;;;5037714;28;20231;-71
2023/03/08 05:17:41;;;;;;;11.93;8.82;;;5.50;99.90;;;;;;5037290;28;20180;-70
2023/03/08 05:20:08;;;;;;;11.88;7.57;;;5.50;99.90;;;;;;5054140;28;20696;-71
2023/03/08 05:22:37;;;;;;;14.90;10.35;;;5.50;99.90;;;;;;5021671;28;20258;-71
2023/03/08 05:25:10;;;;;;;16.08;9.98;;;5.50;99.90;;;;;;5053754;28;20188;-71
2023/03/08 05:27:41;;;;;;;12.48;8.77;;;5.50;99.90;;;;;;5053608;28;20172;-71
2023/03/08 05:30:09;;;;;;;14.45;10.00;;;5.50;99.90;;;;;;5037491;28;20184;-70
2023/03/08 05:32:35;;;;;;;12.57;9.48;;;5.50;99.90;;;;;;5052994;28;20237;-71
2023/03/08 05:35:03;;;;;;;13.93;9.47;;;5.50;99.90;;;;;;5037470;28;20706;-70
2023/03/08 05:37:37;;;;;;;13.82;9.27;;;5.50;99.90;;;;;;5037509;28;20499;-71
2023/03/08 05:40:05;;;;;;;14.20;10.55;;;5.50;99.90;;;;;;5033542;28;20555;-70
2023/03/08 05:42:36;;;;;;;15.45;10.50;;;5.50;99.90;;;;;;5040698;28;20172;-74
2023/03/08 05:45:05;;;;;;;14.52;9.93;;;5.50;99.90;;;;;;5054115;28;20167;-71
2023/03/08 05:47:35;;;;;;;15.82;10.20;;;5.50;99.90;;;;;;5036526;28;20179;-71
2023/03/08 05:50:02;;;;;;;15.23;9.50;;;5.50;99.90;;;;;;5037281;28;20661;-70
2023/03/08 05:52:31;;;;;;;13.05;9.52;;;5.50;99.90;;;;;;5053671;28;20183;-73
2023/03/08 05:55:03;;;;;;;14.77;10.00;;;5.50;99.90;;;;;;5053868;28;20216;-70
2023/03/08 05:57:28;;;;;;;14.75;10.40;;;5.50;99.90;;;;;;5020892;28;20583;-71
2023/03/08 05:59:55;;;;;;;17.90;10.35;;;5.50;99.90;;;;;;5053740;28;20646;-71
2023/03/08 06:02:22;;;;;;;17.10;10.52;;;5.50;99.90;;;;;;5036837;28;20172;-70
2023/03/08 06:04:54;;;;;;;14.32;9.88;;;5.50;99.90;;;;;;5053683;28;20174;-71
2023/03/08 06:07:24;;;;;;;14.40;10.27;;;5.50;99.90;;;;;;5053027;28;20239;-71
2023/03/08 06:10:01;;;;;;;16.05;9.07;;;5.50;99.90;;;;;;5071046;28;20188;-71
2023/03/08 06:12:31;;;;;;;16.50;9.18;;;5.50;99.90;;;;;;5036613;28;20177;-72
2023/03/08 06:15:05;;;;;;;14.20;10.10;;;5.50;99.90;;;;;;5033751;28;20189;-70
2023/03/08 06:17:34;;;;;;;17.92;10.57;;;5.50;99.90;;;;;;5036794;28;20168;-70
2023/03/08 06:20:00;;;;;;;13.88;9.45;;;5.50;99.90;;;;;;5070386;28;20172;-71
2023/03/08 06:22:29;;;;;;;15.93;11.38;;;5.50;99.90;;;;;;5053290;28;20199;-71
2023/03/08 06:25:00;;;;;;;17.35;9.32;;;5.50;99.90;;;;;;5053414;28;20201;-71
2023/03/08 06:27:34;;;;;;;18.40;11.10;;;5.50;99.90;;;;;;5036529;28;20193;-71
2023/03/08 06:30:08;;;;;;;15.20;10.82;;;5.50;99.90;;;;;;5053634;28;20175;-71
2023/03/08 06:32:36;;;;;;;15.27;9.48;;;5.50;99.90;;;;;;5020369;28;20249;-72
2023/03/08 06:35:08;;;;;;;13.32;9.48;;;5.50;99.90;;;;;;5037468;28;20227;-70
2023/03/08 06:37:45;;;;;;;15.95;9.85;;;5.50;99.90;;;;;;5056880;28;20168;-70
2023/03/08 06:40:12;;;;;;;14.93;10.07;;;5.40;99.90;;;;;;5024262;28;20188;-70
2023/03/08 06:42:42;;;;;;;12.02;8.70;;;5.40;99.90;;;;;;5073896;28;20533;-70
2023/03/08 06:45:17;;;;;;;14.80;9.52;;;5.40;99.90;;;;;;5074936;28;20671;-70
2023/03/08 06:47:48;;;;;;;14.57;9.70;;;5.40;99.90;;;;;;5036214;28;20215;-70
2023/03/08 06:50:14;;;;;;;14.65;8.80;;;5.40;99.90;;;;;;5036001;28;20553;-71
2023/03/08 06:52:48;;;;;;;13.02;8.63;;;5.40;99.90;;;;;;5036199;28;20190;-70
2023/03/08 06:55:20;;;;;;;11.80;8.40;;;5.40;99.90;;;;;;5021089;28;20177;-70
2023/03/08 06:57:49;;;;;;;14.55;8.43;;;5.40;99.90;;;;;;5020278;28;20211;-71
2023/03/08 07:00:18;;;;;;;14.50;8.60;;;5.40;99.90;;;;;;5020157;28;20213;-70
2023/03/08 07:02:44;;;;;;;12.63;7.90;;;5.40;99.90;;;;;;5036388;28;20181;-70
2023/03/08 07:05:10;;;;;;;13.63;7.47;;;5.40;99.90;;;;;;5036564;28;20167;-70
2023/03/08 07:07:38;;;;;;;11.32;7.10;;;5.40;99.90;;;;;;5036351;28;20463;-70
2023/03/08 07:10:14;;;;;;;10.20;7.22;;;5.40;99.90;;;;;;5037182;28;20183;-70
2023/03/08 07:12:47;;;;;;;12.07;7.63;;;5.40;99.90;;;;;;5036321;28;20169;-70
2023/03/08 07:15:18;;;;;;;11.73;7.72;;;5.40;99.90;;;;;;5036353;28;20180;-71
2023/03/08 07:17:46;;;;;;;9.85;6.82;;;5.40;99.90;;;;;;5035992;28;20588;-71
2023/03/08 07:20:14;;;;;;;11.95;6.75;;;5.40;99.90;;;;;;5019885;28;20204;-70
2023/03/08 07:22:42;;;;;;;9.90;6.20;;;5.40;99.90;;;;;;5043821;28;20182;-70
2023/03/08 07:25:13;;;;;;;11.63;6.43;;;5.40;99.90;;;;;;5023193;28;20179;-71
2023/03/08 07:27:39;;;;;;;9.65;5.30;;;5.40;99.90;;;;;;5039682;28;20534;-70
2023/03/08 07:30:14;;;;;;;10.25;5.68;;;5.40;99.90;;;;;;5079843;28;20251;-70
2023/03/08 07:32:41;;;;;;;10.15;5.95;;;5.40;99.90;;;;;;5055600;28;20263;-70
2023/03/08 07:35:09;;;;;;;8.15;6.15;;;5.40;99.90;;;;;;5073585;28;20233;-70
2023/03/08 07:37:40;;;;;;;8.18;5.70;;;5.40;99.90;;;;;;5039405;28;20789;-70
2023/03/08 07:40:10;;;;;;;9.05;5.38;;;5.40;99.90;;;;;;5039460;28;20232;-70
2023/03/08 07:42:39;;;;;;;7.90;4.95;;;5.40;99.90;;;;;;5038929;28;20184;-70
2023/03/08 07:45:17;;;;;;;7.55;5.20;;;5.40;99.90;;;;;;5054946;28;20188;-71
2023/03/08 07:47:51;;;;;;;6.53;4.95;;;5.30;99.90;;;;;;5072274;28;20186;-70
2023/03/08 07:50:18;;;;;;;6.53;5.28;;;5.30;99.90;;;;;;5039262;28;20176;-70
2023/03/08 07:52:46;;;;;;;8.90;5.00;;;5.30;99.90;;;;;;5039072;28;20212;-71
2023/03/08 07:55:15;;;;;;;8.55;5.05;;;5.30;99.90;;;;;;5048564;28;20193;-71
2023/03/08 07:57:41;;;;;;;9.30;4.13;;;5.30;99.90;;;;;;5055553;28;20164;-70
2023/03/08 08:00:09;;;;;;;7.45;4.82;;;5.30;99.90;;;;;;5055575;28;20175;-70
2023/03/08 08:02:41;;;;;;;6.57;4.45;;;5.30;99.90;;;;;;5072879;28;20196;-71
2023/03/08 08:05:07;;;;;;;6.40;3.97;;;5.30;99.90;;;;;;5038995;28;20231;-70
2023/03/08 08:07:35;;;;;;;7.05;4.80;;;5.30;99.90;;;;;;5038581;28;20456;-70
2023/03/08 08:10:02;;;;;;;6.60;4.20;;;5.30;99.90;;;;;;5055231;28;20180;-70
2023/03/08 08:12:28;;;;;;;6.75;5.10;;;5.30;99.90;;;;;;5038647;28;20414;-70
2023/03/08 08:14:58;;;;;;;7.10;4.15;;;5.30;99.90;;;;;;5072915;28;20274;-70
2023/03/08 08:17:28;;;;;;;6.93;4.60;;;5.30;99.90;;;;;;5053522;28;20713;-70
2023/03/08 08:19:56;;;;;;;4.97;3.67;;;5.30;99.90;;;;;;5055293;28;20164;-70
2023/03/08 08:22:25;;;;;;;4.43;3.38;;;5.30;99.90;;;;;;5054971;28;20276;-70
2023/03/08 08:24:51;;;;;;;5.35;4.00;;;5.30;99.90;;;;;;5055008;28;20200;-70
2023/03/08 08:27:21;;;;;;;5.07;3.60;;;5.30;99.90;;;;;;5072828;28;20172;-70
2023/03/08 08:29:49;;;;;;;4.57;3.72;;;5.20;99.90;;;;;;5071948;28;20251;-70
2023/03/08 08:32:20;;;;;;;4.60;2.97;;;5.20;99.90;;;;;;5055009;28;20214;-70
2023/03/08 08:34:48;;;;;;;4.25;3.40;;;5.20;99.90;;;;;;5054392;28;20750;-70
2023/03/08 08:37:14;;;;;;;5.83;3.60;;;5.20;99.90;;;;;;5053614;28;20263;-71
2023/03/08 08:39:43;;;;;;;4.43;2.80;;;5.20;99.90;;;;;;5071774;28;20432;-70
2023/03/08 08:42:09;;;;;;;4.18;3.17;;;5.20;99.90;;;;;;5070703;28;20576;-70
2023/03/08 08:44:37;;;;;;;4.18;3.35;;;5.20;99.90;;;;;;5054759;28;20616;-70
2023/03/08 08:47:06;;;;;;;4.28;2.65;;;5.20;99.90;;;;;;5053690;28;20176;-70
2023/03/08 08:49:34;;;;;;;3.92;2.75;;;5.20;99.90;;;;;;5072193;28;20200;-70
2023/03/08 08:52:03;;;;;;;4.65;2.88;;;5.20;99.90;;;;;;5038000;28;20191;-70
2023/03/08 08:54:33;;;;;;;3.25;2.55;;;5.20;99.90;;;;;;5054376;28;20239;-70
2023/03/08 08:57:02;;;;;;;4.93;2.92;;;5.20;99.90;;;;;;5054618;28;20291;-70
2023/03/08 08:59:28;;;;;;;3.78;2.90;;;5.20;99.90;;;;;;5072138;28;20567;-70
2023/03/08 09:01:56;;;;;;;3.60;2.53;;;5.20;99.90;;;;;;5072106;28;20204;-70
2023/03/08 09:04:22;;;;;;;5.65;2.53;;;5.20;99.90;;;;;;5054421;28;20550;-70
2023/03/08 09:06:48;;;;;;;3.88;2.47;;;5.20;99.90;;;;;;5036490;28;20215;-70
2023/03/08 09:09:16;;;;;;;5.68;2.47;;;5.20;99.90;;;;;;5053379;28;20233;-70
2023/03/08 09:11:48;;;;;;;2.97;2.40;;;5.20;99.90;;;;;;5037755;28;20172;-70
2023/03/08 09:14:16;;;;;;;3.85;3.00;;;5.20;99.90;;;;;;5037806;28;20306;-70
2023/03/08 09:16:44;;;;;;;2.67;1.97;;;5.20;99.90;;;;;;5036825;28;20408;-70
2023/03/08 09:19:11;;;;;;;2.22;1.98;;;5.20;99.90;;;;;;5054146;28;20431;-70
2023/03/08 09:21:41;;;;;;;2.55;2.15;;;5.20;99.90;;;;;;5054591;28;20251;-70
2023/03/08 09:24:10;;;;;;;3.10;2.40;;;5.20;99.90;;;;;;5071077;28;20237;-70
2023/03/08 09:26:36;;;;;;;2.55;1.95;;;5.20;99.90;;;;;;5054148;28;20285;-70
2023/03/08 09:29:06;;;;;;;2.43;2.23;;;5.20;99.90;;;;;;5071610;28;20192;-70
2023/03/08 09:31:34;;;;;;;3.00;2.15;;;5.20;99.90;;;;;;5037444;28;20974;-70
2023/03/08 09:34:03;;;;;;;3.05;2.40;;;5.20;99.90;;;;;;5053382;28;20208;-70
2023/03/08 09:36:29;;;;;;;2.58;1.85;;;5.20;99.90;;;;;;5053224;28;20636;-70
2023/03/08 09:39:00;;;;;;;3.53;2.33;;;5.20;99.90;;;;;;5037502;28;20722;-70
2023/03/08 09:41:41;;;;;;;5.70;2.35;;;5.20;99.90;;;;;;5071488;28;20159;-70
2023/03/08 09:44:42;;;;;;;1.85;1.73;;;5.20;99.90;;;;;;5071758;28;20200;-70
2023/03/08 09:47:41;;;;;;;3.45;1.90;;;5.20;99.90;;;;;;5033216;28;20296;-70
2023/03/08 09:50:12;;;;;;;5.20;2.17;;;5.10;99.90;;;;;;5051910;28;20173;-71
2023/03/08 09:52:47;;;;;;;1.80;1.52;;;5.10;99.90;;;;;;5033849;28;20174;-70
2023/03/08 09:55:33;;;;;;;2.47;2.05;;;5.10;99.90;;;;;;5033101;28;20205;-70
2023/03/08 09:58:12;;;;;;;1.75;1.65;;;5.10;99.90;;;;;;5068771;28;20259;-70
2023/03/08 10:00:42;;;;;;;2.65;1.88;;;5.10;99.90;;;;;;5053827;28;20258;-70
2023/03/08 10:03:32;;;;;;;2.55;2.15;;;5.10;99.90;;;;;;5070994;28;20274;-70
2023/03/08 10:06:16;;;;;;;2.58;2.38;;;5.10;99.90;;;;;;5053824;28;20180;-70
2023/03/08 10:08:58;;;;;;;3.92;2.33;;;5.10;99.90;;;;;;5055289;28;20230;-70
2023/03/08 10:11:50;;;;;;;3.47;2.15;;;5.10;99.90;;;;;;5057099;28;20575;-70
2023/03/08 10:14:51;;;;;;;2.00;1.80;;;5.10;99.90;;;;;;5057883;28;20726;-70
2023/03/08 10:17:22;;;;;;;2.25;1.90;;;5.10;99.90;;;;;;5075172;28;20181;-69
2023/03/08 10:20:05;;;;;;;1.98;1.65;;;5.10;99.90;;;;;;5061512;28;20204;-70
2023/03/08 10:22:37;;;;;;;2.13;1.92;;;5.10;99.90;;;;;;5037315;28;20204;-70
2023/03/08 10:25:29;;;;;;;2.53;1.90;;;5.10;99.90;;;;;;5060602;28;20180;-70
2023/03/08 10:28:02;;;;;;;1.95;1.80;;;5.10;99.90;;;;;;5040795;28;20204;-70
2023/03/08 10:30:39;;;;;;;2.40;1.80;;;5.10;99.90;;;;;;5074825;28;20182;-70
2023/03/08 10:33:11;;;;;;;2.55;2.20;;;5.10;99.90;;;;;;5036949;28;20206;-71
2023/03/08 10:35:58;;;;;;;2.10;1.80;;;5.10;99.90;;;;;;5023894;28;20181;-70
2023/03/08 10:38:29;;;;;;;2.38;2.17;;;5.10;99.90;;;;;;5056780;28;20291;-70
2023/03/08 10:41:13;;;;;;;2.30;2.10;;;5.10;99.90;;;;;;5073667;28;20173;-70
2023/03/08 10:43:49;;;;;;;2.47;2.00;;;5.10;99.90;;;;;;5056943;28;20251;-70
2023/03/08 10:46:29;;;;;;;2.10;1.90;;;5.10;99.90;;;;;;5074703;28;20167;-70
2023/03/08 10:49:08;;;;;;;2.95;2.65;;;5.10;99.90;;;;;;5040517;28;20204;-70
2023/03/08 10:51:35;;;;;;;2.97;1.90;;;5.10;99.90;;;;;;5039923;28;20164;-70
2023/03/08 10:54:03;;;;;;;2.47;1.80;;;5.10;99.90;;;;;;5056149;28;20212;-71
2023/03/08 10:57:01;;;;;;;2.30;2.10;;;5.10;99.90;;;;;;5056706;28;20240;-70
2023/03/08 10:59:34;;;;;;;2.20;1.98;;;5.10;99.90;;;;;;5040117;28;20201;-70
2023/03/08 11:02:17;;;;;;;3.03;2.33;;;5.10;99.90;;;;;;5074459;28;20157;-70
2023/03/08 11:04:51;;;;;;;2.45;2.25;;;5.10;99.90;;;;;;5056468;28;20172;-70
2023/03/08 11:07:23;;;;;;;4.05;2.30;;;5.10;99.90;;;;;;5056095;28;20209;-70
2023/03/08 11:10:02;;;;;;;1.95;1.80;;;5.10;99.90;;;;;;5074174;28;20195;-70
2023/03/08 11:12:31;;;;;;;2.60;2.30;;;5.10;99.90;;;;;;5074250;28;20173;-70
2023/03/08 11:14:57;;;;;;;2.33;2.13;;;5.10;99.90;;;;;;5056332;28;20691;-71
2023/03/08 11:17:30;;;;;;;3.93;2.40;;;5.10;99.90;;;;;;5073353;28;20174;-70
2023/03/08 11:20:14;;;;;;;2.45;2.13;;;5.10;99.90;;;;;;5055971;28;20445;-71
2023/03/08 11:23:11;;;;;;;2.30;2.10;;;5.10;99.90;;;;;;5072837;28;20177;-70
2023/03/08 11:26:07;;;;;;;2.55;2.20;;;5.10;99.90;;;;;;5056186;28;20191;-70
2023/03/08 11:29:11;;;;;;;2.40;2.20;;;5.10;99.90;;;;;;5023142;28;20233;-70
2023/03/08 11:32:03;;;;;;;2.28;2.08;;;5.10;99.90;;;;;;4995662;28;20190;-70
2023/03/08 11:34:32;;;;;;;4.75;2.88;;;5.10;99.90;;;;;;4995489;28;20565;-71
2023/03/08 11:37:18;;;;;;;2.95;2.47;;;5.10;99.90;;;;;;5052973;28;20223;-71
2023/03/08 11:40:06;;;;;;;2.90;2.60;;;5.10;99.90;;;;;;5055803;28;20219;-71
2023/03/08 11:42:44;;;;;;;2.80;2.25;;;5.10;99.90;;;;;;5039160;28;20223;-70
2023/03/08 11:45:30;;;;;;;2.20;2.00;;;5.10;99.90;;;;;;5055772;28;20169;-70
2023/03/08 11:48:11;;;;;;;5.88;2.10;;;5.10;99.90;;;;;;5072400;28;20566;-70
2023/03/08 11:51:17;;;;;;;3.38;2.42;;;5.10;99.90;;;;;;5055923;28;20169;-70
2023/03/08 11:53:50;;;;;;;2.50;2.30;;;5.10;99.90;;;;;;5036815;28;20223;-70
2023/03/08 11:56:46;;;;;;;2.50;2.20;;;5.00;99.90;;;;;;5053553;28;20168;-70
2023/03/08 11:59:47;;;;;;;2.40;2.20;;;5.00;99.90;;;;;;5019470;28;20201;-71
2023/03/08 12:02:19;;;;;;;3.95;2.60;;;5.00;99.90;;;;;;5054217;28;20156;-70
2023/03/08 12:05:02;;;;;;;3.00;2.45;;;5.00;99.90;;;;;;5055461;28;20183;-70
2023/03/08 12:07:44;;;;;;;3.13;2.80;;;5.00;99.90;;;;;;5034457;28;20213;-72
2023/03/08 12:10:19;;;;;;;3.00;2.67;;;5.00;99.90;;;;;;5035773;28;20223;-72
2023/03/08 12:12:55;;;;;;;3.55;2.70;;;5.00;99.90;;;;;;5053119;28;20172;-72
2023/03/08 12:15:43;;;;;;;2.85;2.65;;;5.00;99.90;;;;;;5035319;28;20662;-72
2023/03/08 12:18:26;;;;;;;2.92;2.60;;;5.00;99.90;;;;;;5035361;28;20783;-71
2023/03/08 12:21:05;;;;;;;2.72;2.47;;;5.10;99.90;;;;;;5052720;28;20216;-72
2023/03/08 12:23:51;;;;;;;3.63;2.70;;;5.10;99.90;;;;;;5054692;28;20184;-72
2023/03/08 12:26:42;;;;;;;3.30;3.00;;;5.00;99.90;;;;;;5071922;28;20255;-72
2023/03/08 12:29:25;;;;;;;3.50;2.35;;;5.00;99.90;;;;;;5072497;28;20199;-72
2023/03/08 12:31:54;;;;;;;3.65;3.33;;;5.00;99.90;;;;;;5071838;28;20204;-72
2023/03/08 12:34:27;;;;;;;2.95;2.65;;;5.00;99.90;;;;;;5023184;28;20216;-72
2023/03/08 12:36:54;;;;;;;5.68;2.97;;;5.00;99.90;;;;;;5022191;28;20658;-72
2023/03/08 12:39:35;;;;;;;3.15;2.85;;;5.00;99.90;;;;;;5033747;28;20218;-72
2023/03/08 12:42:09;;;;;;;3.83;3.42;;;5.00;99.90;;;;;;5051807;28;20231;-73
2023/03/08 12:44:42;;;;;;;3.63;3.05;;;5.00;99.90;;;;;;5018036;28;20203;-72
2023/03/08 12:47:11;;;;;;;3.70;3.40;;;5.00;99.90;;;;;;5003085;28;20649;-72
2023/03/08 12:49:46;;;;;;;3.45;3.15;;;5.00;99.90;;;;;;5021308;28;20204;-72
2023/03/08 12:52:17;;;;;;;3.53;3.22;;;5.00;99.90;;;;;;5031198;28;20209;-72
2023/03/08 12:54:58;;;;;;;4.40;2.95;;;5.00;99.90;;;;;;5045502;28;20554;-72
2023/03/08 12:57:38;;;;;;;3.75;3.20;;;5.00;99.90;;;;;;5053997;28;20728;-72
2023/03/08 13:00:37;;;;;;;3.40;3.10;;;5.00;99.90;;;;;;5072351;28;20199;-72
2023/03/08 13:03:11;;;;;;;3.17;2.88;;;5.00;99.90;;;;;;5035204;28;20733;-72
2023/03/08 13:05:42;;;;;;;6.60;3.20;;;5.00;99.90;;;;;;5034372;28;20529;-72
2023/03/08 13:08:11;;;;;;;4.07;3.10;;;5.00;99.90;;;;;;5051622;28;20200;-72
2023/03/08 13:10:52;;;;;;;4.05;3.35;;;5.00;99.90;;;;;;5034103;28;20220;-72
2023/03/08 13:13:33;;;;;;;4.10;3.35;;;5.00;99.90;;;;;;5034134;28;20236;-72
2023/03/08 13:16:06;;;;;;;3.47;3.17;;;5.00;99.90;;;;;;5034104;28;20187;-72
2023/03/08 13:18:32;;;;;;;3.95;3.58;;;5.00;99.90;;;;;;5047105;28;20195;-72
2023/03/08 13:21:24;;;;;;;3.63;3.00;;;5.00;99.90;;;;;;5021651;28;20189;-72
2023/03/08 13:24:05;;;;;;;3.88;3.00;;;5.00;99.90;;;;;;5044926;28;20673;-73